createdAt,value
2019-04-26T00:01:51.497Z,19.20
2019-04-26T00:04:19.464Z,19.30
2019-04-26T00:06:48.940Z,19.20
2019-04-26T00:09:18.791Z,19.20
2019-04-26T00:11:48.656Z,19.20
2019-04-26T00:14:34.799Z,19.20
2019-04-26T00:17:07.627Z,19.20
2019-04-26T00:19:37.289Z,19.20
2019-04-26T00:22:06.455Z,19.20
2019-04-26T00:24:34.922Z,19.20
2019-04-26T00:27:03.783Z,19.20
2019-04-26T00:29:32.019Z,19.20
2019-04-26T00:32:00.751Z,19.20
2019-04-26T00:34:28.950Z,19.20
2019-04-26T00:36:57.176Z,19.20
2019-04-26T00:39:25.400Z,19.20
2019-04-26T00:41:53.928Z,19.20
2019-04-26T00:44:22.851Z,19.10
2019-04-26T00:46:51.142Z,19.10
2019-04-26T00:49:21.355Z,19.10
2019-04-26T00:51:49.649Z,19.10
2019-04-26T00:54:18.646Z,19.00
2019-04-26T00:56:47.204Z,19.00
2019-04-26T00:59:16.394Z,19.00
2019-04-26T01:01:47.395Z,18.90
2019-04-26T01:04:16.997Z,18.90
2019-04-26T01:06:47.159Z,18.90
2019-04-26T01:09:16.064Z,18.90
2019-04-26T01:11:45.275Z,18.90
2019-04-26T01:14:13.502Z,18.90
2019-04-26T01:16:41.800Z,18.90
2019-04-26T01:19:11.261Z,18.90
2019-04-26T01:21:45.649Z,18.90
2019-04-26T01:24:13.882Z,18.80
2019-04-26T01:26:42.105Z,18.80
2019-04-26T01:29:11.943Z,18.80
2019-04-26T01:31:54.866Z,18.80
2019-04-26T01:34:24.161Z,18.80
2019-04-26T01:36:52.673Z,18.70
2019-04-26T01:39:22.438Z,18.70
2019-04-26T01:41:58.534Z,18.60
2019-04-26T01:44:39.324Z,18.50
2019-04-26T01:47:07.933Z,18.50
2019-04-26T01:49:36.148Z,18.50
2019-04-26T01:52:09.646Z,18.50
2019-04-26T01:54:43.012Z,18.40
2019-04-26T01:57:11.539Z,18.30
2019-04-26T01:59:42.832Z,18.30
2019-04-26T02:02:18.467Z,18.30
2019-04-26T02:04:48.369Z,18.30
2019-04-26T02:07:18.226Z,18.30
2019-04-26T02:09:46.450Z,18.30
2019-04-26T02:12:15.207Z,18.30
2019-04-26T02:14:43.448Z,18.20
2019-04-26T02:17:11.687Z,18.20
2019-04-26T02:19:39.920Z,18.10
2019-04-26T02:22:10.195Z,18.20
2019-04-26T02:24:40.083Z,18.20
2019-04-26T02:27:09.940Z,18.10
2019-04-26T02:29:38.273Z,18.00
2019-04-26T02:32:07.735Z,17.90
2019-04-26T02:34:37.849Z,17.90
2019-04-26T02:37:06.877Z,17.90
2019-04-26T02:39:38.182Z,17.70
2019-04-26T02:42:09.012Z,17.70
2019-04-26T02:44:41.080Z,17.60
2019-04-26T02:47:38.914Z,17.70
2019-04-26T02:50:11.427Z,17.60
2019-04-26T02:52:45.699Z,17.50
2019-04-26T02:55:17.171Z,17.40
2019-04-26T02:57:48.746Z,17.30
2019-04-26T03:00:18.872Z,17.20
2019-04-26T03:02:50.198Z,17.20
2019-04-26T03:05:18.425Z,17.10
2019-04-26T03:07:49.543Z,17.10
2019-04-26T03:10:17.781Z,17.00
2019-04-26T03:12:45.984Z,17.00
2019-04-26T03:15:25.526Z,17.00
2019-04-26T03:17:58.639Z,16.90
2019-04-26T03:20:36.321Z,16.80
2019-04-26T03:23:40.986Z,16.80
2019-04-26T03:26:01.707Z,16.80
2019-04-26T03:28:37.647Z,16.80
2019-04-26T03:31:11.766Z,16.80
2019-04-26T03:34:05.745Z,16.60
2019-04-26T03:36:43.968Z,16.70
2019-04-26T03:39:19.905Z,16.70
2019-04-26T03:42:26.171Z,16.60
2019-04-26T03:45:15.449Z,16.60
2019-04-26T03:47:52.834Z,16.60
2019-04-26T03:50:24.311Z,16.50
2019-04-26T03:53:12.576Z,16.60
2019-04-26T03:55:45.695Z,16.50
2019-04-26T04:01:39.421Z,16.50
2019-04-26T04:04:25.748Z,16.50
2019-04-26T04:07:03.672Z,16.50
2019-04-26T04:09:23.917Z,16.50
2019-04-26T04:12:10.800Z,16.40
2019-04-26T04:14:45.089Z,16.50
2019-04-26T04:17:18.705Z,16.50
2019-04-26T04:19:55.467Z,16.50
2019-04-26T04:22:23.754Z,16.50
2019-04-26T04:25:05.147Z,16.50
2019-04-26T04:27:58.450Z,16.50
2019-04-26T04:30:35.404Z,16.50
2019-04-26T04:33:13.884Z,16.50
2019-04-26T04:35:49.291Z,16.40
2019-04-26T04:38:51.155Z,16.40
2019-04-26T04:41:33.285Z,16.40
2019-04-26T04:44:21.512Z,16.40
2019-04-26T04:46:57.544Z,16.40
2019-04-26T04:49:42.991Z,16.40
2019-04-26T04:52:37.164Z,16.50
2019-04-26T04:55:30.308Z,16.50
2019-04-26T04:58:26.014Z,16.50
2019-04-26T05:01:10.797Z,16.50
2019-04-26T05:04:03.637Z,16.50
2019-04-26T05:06:53.435Z,16.50
2019-04-26T05:09:39.980Z,16.50
2019-04-26T05:12:29.531Z,16.50
2019-04-26T05:15:08.960Z,16.60
2019-04-26T05:17:49.637Z,16.60
2019-04-26T05:20:29.984Z,16.70
2019-04-26T05:23:25.391Z,16.70
2019-04-26T05:26:07.376Z,16.70
2019-04-26T05:28:56.880Z,16.60
2019-04-26T05:31:32.288Z,16.60
2019-04-26T05:34:04.991Z,16.60
2019-04-26T05:36:44.985Z,16.60
2019-04-26T05:39:26.135Z,16.60
2019-04-26T05:42:31.812Z,16.60
2019-04-26T05:45:50.018Z,16.60
2019-04-26T05:48:35.608Z,16.60
2019-04-26T05:51:27.573Z,16.60
2019-04-26T05:54:34.711Z,16.60
2019-04-26T05:57:11.042Z,16.60
2019-04-26T05:59:48.623Z,16.60
2019-04-26T06:02:24.890Z,16.60
2019-04-26T06:05:20.211Z,16.60
2019-04-26T06:08:13.574Z,16.60
2019-04-26T06:10:49.398Z,16.70
2019-04-26T06:13:31.014Z,16.80
2019-04-26T06:16:16.179Z,16.90
2019-04-26T06:19:03.926Z,16.90
2019-04-26T06:21:38.052Z,16.90
2019-04-26T06:24:30.341Z,17.00
2019-04-26T06:27:13.144Z,17.00
2019-04-26T06:29:59.211Z,16.90
2019-04-26T06:32:30.698Z,16.90
2019-04-26T06:35:08.627Z,16.90
2019-04-26T06:38:03.916Z,17.00
2019-04-26T06:40:48.639Z,17.00
2019-04-26T06:43:26.383Z,17.00
2019-04-26T06:46:40.010Z,17.10
2019-04-26T06:49:25.092Z,17.10
2019-04-26T06:52:14.956Z,17.10
2019-04-26T06:54:56.271Z,17.10
2019-04-26T06:58:04.886Z,17.20
2019-04-26T07:01:01.783Z,17.20
2019-04-26T07:03:51.441Z,17.30
2019-04-26T07:06:34.514Z,17.30
2019-04-26T07:09:08.830Z,17.30
2019-04-26T07:12:14.768Z,17.30
2019-04-26T07:15:05.764Z,17.30
2019-04-26T07:17:40.059Z,17.30
2019-04-26T07:20:28.579Z,17.40
2019-04-26T07:23:16.737Z,17.40
2019-04-26T07:26:14.080Z,17.40
2019-04-26T07:28:57.636Z,17.50
2019-04-26T07:31:43.911Z,17.50
2019-04-26T07:34:40.216Z,17.50
2019-04-26T07:37:29.832Z,17.50
2019-04-26T07:40:29.893Z,17.50
2019-04-26T07:43:26.058Z,17.50
2019-04-26T07:46:17.050Z,17.50
2019-04-26T07:49:12.547Z,17.50
2019-04-26T07:52:13.332Z,17.60
2019-04-26T07:55:11.408Z,17.70
2019-04-26T07:58:17.027Z,17.60
2019-04-26T08:00:53.142Z,17.70
2019-04-26T08:03:41.555Z,17.70
2019-04-26T08:06:13.725Z,17.70
2019-04-26T08:08:48.151Z,17.80
2019-04-26T08:11:25.632Z,17.80
2019-04-26T08:14:15.218Z,17.90
2019-04-26T08:16:57.111Z,17.90
2019-04-26T08:19:26.247Z,17.90
2019-04-26T08:21:55.600Z,18.00
2019-04-26T08:24:27.996Z,18.00
2019-04-26T08:27:08.731Z,18.00
2019-04-26T08:29:33.305Z,18.00
2019-04-26T08:32:03.405Z,18.00
2019-04-26T08:34:33.847Z,18.10
2019-04-26T08:37:06.685Z,18.10
2019-04-26T08:39:44.930Z,18.10
2019-04-26T08:42:12.065Z,18.20
2019-04-26T08:44:56.246Z,18.20
2019-04-26T08:47:46.066Z,18.30
2019-04-26T08:50:31.415Z,18.20
2019-04-26T08:53:02.223Z,18.30
2019-04-26T08:55:30.447Z,18.40
2019-04-26T08:58:02.233Z,18.40
2019-04-26T09:00:38.338Z,18.50
2019-04-26T09:03:11.761Z,18.50
2019-04-26T09:05:58.224Z,18.50
2019-04-26T09:08:29.173Z,18.50
2019-04-26T09:10:58.808Z,18.60
2019-04-26T09:13:29.226Z,18.60
2019-04-26T09:16:08.284Z,18.60
2019-04-26T09:18:43.685Z,18.60
2019-04-26T09:21:07.411Z,18.70
2019-04-26T09:23:52.034Z,18.70
2019-04-26T09:26:28.352Z,18.70
2019-04-26T09:29:15.588Z,18.70
2019-04-26T09:31:45.542Z,18.80
2019-04-26T09:34:15.743Z,18.70
2019-04-26T09:36:45.029Z,18.70
2019-04-26T09:39:14.597Z,18.80
2019-04-26T09:41:43.100Z,18.80
2019-04-26T09:44:24.771Z,18.80
2019-04-26T09:47:00.713Z,18.80
2019-04-26T09:49:31.433Z,18.90
2019-04-26T09:52:01.205Z,18.90
2019-04-26T09:54:30.177Z,18.90
2019-04-26T09:56:58.465Z,18.90
2019-04-26T09:59:27.191Z,19.00
2019-04-26T10:01:59.450Z,19.00
2019-04-26T10:04:25.663Z,19.00
2019-04-26T10:06:59.389Z,19.10
2019-04-26T10:09:26.801Z,19.10
2019-04-26T10:11:56.670Z,19.10
2019-04-26T10:14:43.223Z,19.20
2019-04-26T10:17:19.099Z,19.20
2019-04-26T10:19:49.415Z,19.20
2019-04-26T10:22:18.184Z,19.20
2019-04-26T10:24:46.934Z,19.20
2019-04-26T10:27:17.233Z,19.20
2019-04-26T10:29:45.487Z,19.30
2019-04-26T10:32:14.191Z,19.30
2019-04-26T10:34:47.250Z,19.40
2019-04-26T10:37:13.700Z,19.40
2019-04-26T10:39:43.712Z,19.40
2019-04-26T10:42:11.919Z,19.50
2019-04-26T10:44:41.116Z,19.40
2019-04-26T10:47:09.648Z,19.50
2019-04-26T10:49:43.620Z,19.50
2019-04-26T10:52:16.976Z,19.50
2019-04-26T10:54:46.100Z,19.50
2019-04-26T10:57:25.888Z,19.40
2019-04-26T10:59:58.244Z,19.30
2019-04-26T11:02:27.697Z,19.40
2019-04-26T11:04:55.917Z,19.30
2019-04-26T11:07:26.496Z,19.30
2019-04-26T11:09:55.047Z,19.20
2019-04-26T11:12:24.095Z,19.20
2019-04-26T11:14:53.229Z,19.10
2019-04-26T11:17:22.815Z,19.10
2019-04-26T11:19:52.061Z,19.10
2019-04-26T11:22:28.891Z,19.00
2019-04-26T11:24:53.789Z,19.00
2019-04-26T11:27:23.200Z,19.00
2019-04-26T11:29:53.938Z,18.90
2019-04-26T11:32:26.009Z,18.90
2019-04-26T11:34:58.176Z,18.90
2019-04-26T11:37:24.711Z,18.90
2019-04-26T11:39:54.012Z,18.90
2019-04-26T11:42:22.803Z,18.90
2019-04-26T11:44:51.117Z,18.90
2019-04-26T11:47:19.356Z,18.90
2019-04-26T11:49:49.997Z,18.90
2019-04-26T11:52:18.579Z,18.80
2019-04-26T11:54:51.320Z,18.80
2019-04-26T11:57:17.467Z,18.80
2019-04-26T11:59:46.253Z,18.80
2019-04-26T12:02:16.106Z,18.80
2019-04-26T12:04:49.532Z,18.70
2019-04-26T12:07:22.758Z,18.80
2019-04-26T12:09:55.312Z,18.80
2019-04-26T12:12:24.280Z,18.90
2019-04-26T12:14:52.575Z,19.00
2019-04-26T12:17:20.828Z,19.00
2019-04-26T12:19:52.273Z,19.10
2019-04-26T12:22:19.171Z,19.00
2019-04-26T12:24:47.826Z,19.00
2019-04-26T12:27:16.253Z,19.00
2019-04-26T12:29:48.248Z,18.90
2019-04-26T12:32:17.216Z,18.90
2019-04-26T12:34:45.648Z,18.90
2019-04-26T12:37:19.963Z,19.00
2019-04-26T12:39:44.292Z,19.00
2019-04-26T12:42:13.826Z,19.00
2019-04-26T12:44:47.030Z,19.00
2019-04-26T12:47:18.937Z,19.00
2019-04-26T12:49:47.202Z,19.00
2019-04-26T12:52:17.398Z,19.10
2019-04-26T12:54:45.579Z,19.10
2019-04-26T12:57:16.202Z,19.00
2019-04-26T12:59:44.654Z,19.00
2019-04-26T13:02:16.558Z,19.00
2019-04-26T13:04:44.530Z,19.00
2019-04-26T13:07:23.760Z,18.90
2019-04-26T13:09:49.444Z,18.90
2019-04-26T13:12:26.048Z,18.80
2019-04-26T13:15:00.984Z,18.80
2019-04-26T13:17:31.345Z,18.70
2019-04-26T13:20:01.735Z,18.70
2019-04-26T13:22:32.061Z,18.60
2019-04-26T13:25:00.087Z,18.70
2019-04-26T13:27:28.353Z,18.70
2019-04-26T13:30:02.552Z,18.70
2019-04-26T13:32:26.819Z,18.70
2019-04-26T13:34:55.264Z,18.80
2019-04-26T13:37:23.864Z,18.80
2019-04-26T13:39:55.264Z,18.80
2019-04-26T13:42:22.303Z,18.80
2019-04-26T13:44:52.338Z,18.80
2019-04-26T13:47:31.436Z,18.80
2019-04-26T13:50:01.337Z,18.80
2019-04-26T13:52:29.624Z,18.80
2019-04-26T13:54:58.108Z,18.70
2019-04-26T13:57:27.344Z,18.70
2019-04-26T13:59:55.603Z,18.60
2019-04-26T14:02:23.972Z,18.70
2019-04-26T14:04:52.261Z,18.70
2019-04-26T14:07:24.565Z,18.60
2019-04-26T14:09:50.543Z,18.50
2019-04-26T14:12:19.174Z,18.60
2019-04-26T14:14:47.798Z,18.50
2019-04-26T14:17:16.560Z,18.50
2019-04-26T14:19:45.293Z,18.50
2019-04-26T14:22:16.569Z,18.50
2019-04-26T14:24:46.487Z,18.50
2019-04-26T14:27:16.707Z,18.50
2019-04-26T14:29:45.279Z,18.50
2019-04-26T14:32:13.794Z,18.40
2019-04-26T14:34:43.809Z,18.50
2019-04-26T14:37:15.575Z,18.50
2019-04-26T14:39:50.115Z,18.40
2019-04-26T14:42:12.152Z,18.50
2019-04-26T14:44:49.152Z,18.50
2019-04-26T14:47:14.923Z,18.60
2019-04-26T14:49:42.938Z,18.60
2019-04-26T14:52:10.652Z,18.60
2019-04-26T14:54:41.427Z,18.60
2019-04-26T14:57:16.914Z,18.70
2019-04-26T14:59:46.705Z,18.70
2019-04-26T15:02:32.815Z,18.80
2019-04-26T15:05:22.231Z,18.80
2019-04-26T15:07:52.846Z,18.70
2019-04-26T15:10:22.386Z,18.70
2019-04-26T15:12:58.544Z,18.70
2019-04-26T15:15:20.839Z,18.70
2019-04-26T15:17:49.170Z,18.60
2019-04-26T15:20:20.883Z,18.60
2019-04-26T15:22:49.914Z,18.60
2019-04-26T15:25:17.746Z,18.60
2019-04-26T15:27:46.162Z,18.60
2019-04-26T15:30:14.436Z,18.60
2019-04-26T15:32:42.745Z,18.60
2019-04-26T15:35:15.541Z,18.70
2019-04-26T15:37:42.266Z,18.60
2019-04-26T15:40:31.898Z,18.60
2019-04-26T15:43:19.119Z,18.60
2019-04-26T15:45:49.035Z,18.50
2019-04-26T15:48:23.026Z,18.40
2019-04-26T15:50:55.675Z,18.30
2019-04-26T15:53:24.100Z,18.20
2019-04-26T15:55:52.588Z,18.20
2019-04-26T15:58:20.858Z,18.20
2019-04-26T16:00:49.191Z,18.10
2019-04-26T16:03:17.623Z,18.00
2019-04-26T16:05:45.970Z,18.00
2019-04-26T16:08:14.288Z,17.90
2019-04-26T16:10:43.028Z,17.90
2019-04-26T16:13:21.468Z,17.80
2019-04-26T16:15:43.572Z,17.70
2019-04-26T16:18:17.018Z,17.70
2019-04-26T16:20:42.848Z,17.60
2019-04-26T16:23:13.297Z,17.50
2019-04-26T16:25:42.848Z,17.40
2019-04-26T16:28:16.018Z,17.50
2019-04-26T16:30:57.450Z,17.40
2019-04-26T16:36:06.126Z,17.30
2019-04-26T16:38:35.375Z,17.30
2019-04-26T16:41:03.952Z,17.30
2019-04-26T16:43:39.646Z,17.20
2019-04-26T16:46:02.500Z,17.20
2019-04-26T16:48:30.852Z,17.20
2019-04-26T16:51:00.869Z,17.30
2019-04-26T16:53:43.887Z,17.20
2019-04-26T16:55:59.266Z,17.20
2019-04-26T16:58:31.064Z,17.10
2019-04-26T17:00:58.619Z,17.10
2019-04-26T17:03:27.183Z,17.10
2019-04-26T17:06:04.926Z,17.00
2019-04-26T17:08:25.782Z,16.90
2019-04-26T17:10:56.675Z,16.90
2019-04-26T17:13:29.782Z,16.80
2019-04-26T17:15:58.300Z,16.80
2019-04-26T17:18:27.034Z,16.70
2019-04-26T17:20:54.331Z,16.70
2019-04-26T17:23:42.572Z,16.60
2019-04-26T17:26:24.467Z,16.60
2019-04-26T17:28:55.531Z,16.50
2019-04-26T17:31:23.740Z,16.40
2019-04-26T17:33:51.992Z,16.40
2019-04-26T17:36:20.278Z,16.40
2019-04-26T17:38:50.426Z,16.40
2019-04-26T17:41:18.544Z,16.30
2019-04-26T17:43:50.491Z,16.20
2019-04-26T17:46:18.184Z,16.20
2019-04-26T17:48:49.459Z,16.20
2019-04-26T17:51:19.451Z,16.10
2019-04-26T17:53:50.602Z,16.00
2019-04-26T17:56:19.182Z,16.10
2019-04-26T17:58:53.676Z,16.10
2019-04-26T18:01:39.911Z,16.10
2019-04-26T18:03:52.172Z,16.10
2019-04-26T18:06:29.028Z,16.00
2019-04-26T18:08:54.209Z,16.00
2019-04-26T18:11:24.582Z,16.00
2019-04-26T18:13:51.289Z,16.00
2019-04-26T18:16:23.120Z,15.90
2019-04-26T18:19:05.143Z,15.90
2019-04-26T18:21:56.028Z,15.90
2019-04-26T18:24:23.422Z,15.80
2019-04-26T18:26:58.888Z,15.80
2019-04-26T18:29:23.739Z,15.70
2019-04-26T18:31:53.521Z,15.70
2019-04-26T18:34:23.209Z,15.70
2019-04-26T18:36:51.722Z,15.60
2019-04-26T18:39:22.814Z,15.70
2019-04-26T18:41:50.206Z,15.60
2019-04-26T18:44:18.716Z,15.50
2019-04-26T18:46:48.620Z,15.50
2019-04-26T18:49:22.501Z,15.50
2019-04-26T18:51:48.264Z,15.60
2019-04-26T18:54:18.858Z,15.50
2019-04-26T18:56:55.856Z,15.50
2019-04-26T18:59:24.206Z,15.40
2019-04-26T19:01:54.977Z,15.40
2019-04-26T19:04:23.724Z,15.40
2019-04-26T19:06:52.151Z,15.40
2019-04-26T19:09:22.094Z,15.30
2019-04-26T19:11:52.397Z,15.30
2019-04-26T19:14:48.757Z,15.30
2019-04-26T19:17:22.088Z,15.30
2019-04-26T19:20:08.503Z,15.30
2019-04-26T19:22:37.963Z,15.20
2019-04-26T19:25:18.783Z,15.20
2019-04-26T19:27:47.313Z,15.20
2019-04-26T19:30:09.266Z,15.10
2019-04-26T19:32:39.617Z,15.10
2019-04-26T19:35:12.089Z,15.00
2019-04-26T19:37:38.064Z,15.00
2019-04-26T19:40:09.075Z,15.00
2019-04-26T19:42:37.155Z,15.00
2019-04-26T19:45:13.548Z,14.90
2019-04-26T19:47:52.113Z,14.90
2019-04-26T19:50:41.989Z,14.90
2019-04-26T19:53:10.405Z,14.90
2019-04-26T19:55:55.771Z,14.90
2019-04-26T19:58:25.669Z,14.90
2019-04-26T20:00:53.961Z,14.90
2019-04-26T20:03:22.242Z,14.90
2019-04-26T20:05:52.766Z,14.90
2019-04-26T20:08:21.521Z,15.00
2019-04-26T20:10:52.049Z,14.90
2019-04-26T20:13:21.961Z,14.90
2019-04-26T20:15:51.433Z,14.80
2019-04-26T20:18:21.407Z,14.90
2019-04-26T20:20:52.006Z,14.80
2019-04-26T20:23:20.045Z,14.90
2019-04-26T20:25:52.901Z,14.80
2019-04-26T20:28:22.658Z,14.80
2019-04-26T20:31:09.107Z,14.90
2019-04-26T20:33:37.767Z,14.80
2019-04-26T20:36:06.107Z,14.80
2019-04-26T20:38:42.863Z,14.80
2019-04-26T20:41:04.652Z,14.80
2019-04-26T20:43:36.868Z,14.80
2019-04-26T20:46:14.574Z,14.80
2019-04-26T20:48:35.574Z,14.70
2019-04-26T20:51:06.670Z,14.70
2019-04-26T20:53:40.073Z,14.70
2019-04-26T20:56:09.442Z,14.70
2019-04-26T20:58:37.461Z,14.60
2019-04-26T21:01:06.293Z,14.50
2019-04-26T21:03:41.942Z,14.60
2019-04-26T21:06:06.190Z,14.60
2019-04-26T21:08:34.523Z,14.60
2019-04-26T21:11:03.282Z,14.60
2019-04-26T21:13:32.483Z,14.60
2019-04-26T21:16:03.618Z,14.60
2019-04-26T21:18:33.644Z,14.50
2019-04-26T21:21:01.505Z,14.50
2019-04-26T21:23:33.628Z,14.50
2019-04-26T21:28:49.111Z,14.60
2019-04-26T21:31:22.363Z,14.50
2019-04-26T21:34:13.864Z,14.50
2019-04-26T21:36:43.756Z,14.40
2019-04-26T21:39:16.188Z,14.40
2019-04-26T21:41:48.366Z,14.30
2019-04-26T21:44:16.112Z,14.40
2019-04-26T21:46:44.380Z,14.40
2019-04-26T21:49:13.627Z,14.40
2019-04-26T21:51:44.717Z,14.30
2019-04-26T21:54:14.375Z,14.30
2019-04-26T21:56:48.570Z,14.30
2019-04-26T21:59:13.806Z,14.40
2019-04-26T22:01:43.482Z,14.40
2019-04-26T22:04:13.314Z,14.30
2019-04-26T22:06:42.283Z,14.40
2019-04-26T22:09:21.908Z,14.30
2019-04-26T22:11:53.944Z,14.30
2019-04-26T22:14:23.629Z,14.30
2019-04-26T22:16:57.480Z,14.30
2019-04-26T22:19:32.244Z,14.30
2019-04-26T22:22:05.765Z,14.20
2019-04-26T22:24:31.457Z,14.20
2019-04-26T22:26:59.707Z,14.10
2019-04-26T22:29:28.935Z,14.10
2019-04-26T22:31:57.939Z,14.10
2019-04-26T22:34:26.215Z,14.10
2019-04-26T22:36:55.507Z,14.10
2019-04-26T22:39:24.563Z,14.00
2019-04-26T22:41:53.504Z,14.00
2019-04-26T22:44:34.051Z,14.00
2019-04-26T22:47:04.831Z,14.00
2019-04-26T22:49:34.938Z,14.00
2019-04-26T22:52:06.330Z,14.00
2019-04-26T22:54:33.554Z,14.00
2019-04-26T22:57:03.789Z,14.00
2019-04-26T22:59:33.804Z,14.00
2019-04-26T23:02:03.476Z,14.00
2019-04-26T23:04:33.045Z,14.00
2019-04-26T23:07:03.426Z,13.90
2019-04-26T23:09:33.292Z,14.00
2019-04-26T23:12:06.004Z,13.90
2019-04-26T23:14:43.758Z,13.90
2019-04-26T23:17:14.115Z,13.90
2019-04-26T23:19:49.453Z,13.90
2019-04-26T23:22:17.043Z,13.90
2019-04-26T23:24:49.226Z,13.80
2019-04-26T23:27:20.559Z,13.90
2019-04-26T23:29:45.903Z,13.80
2019-04-26T23:32:18.183Z,13.80
2019-04-26T23:34:46.127Z,13.80
2019-04-26T23:37:14.403Z,13.80
2019-04-26T23:39:49.285Z,13.80
2019-04-26T23:42:16.477Z,13.80
2019-04-26T23:44:44.088Z,13.80
2019-04-26T23:47:20.989Z,13.80
2019-04-26T23:49:43.399Z,13.80
2019-04-26T23:52:14.585Z,13.70
2019-04-26T23:54:42.799Z,13.70
2019-04-26T23:57:11.062Z,13.70
2019-04-26T23:59:39.719Z,13.70
